createdAt,value
2019-06-10T00:01:13.342Z,18.20
2019-06-10T00:03:46.952Z,18.21
2019-06-10T00:06:21.059Z,18.15
2019-06-10T00:08:55.980Z,18.15
2019-06-10T00:11:31.522Z,18.08
2019-06-10T00:14:06.060Z,18.06
2019-06-10T00:16:41.548Z,18.05
2019-06-10T00:19:15.363Z,18.03
2019-06-10T00:21:50.904Z,18.02
2019-06-10T00:24:24.304Z,18.00
2019-06-10T00:26:57.854Z,17.98
2019-06-10T00:29:31.387Z,17.96
2019-06-10T00:32:07.863Z,17.95
2019-06-10T00:34:41.865Z,17.96
2019-06-10T00:37:15.613Z,17.96
2019-06-10T00:39:51.210Z,17.93
2019-06-10T00:42:24.468Z,17.87
2019-06-10T00:44:58.012Z,17.87
2019-06-10T00:47:31.581Z,17.85
2019-06-10T00:50:08.561Z,17.87
2019-06-10T00:52:45.180Z,17.88
2019-06-10T00:55:17.430Z,17.87
2019-06-10T00:57:51.179Z,17.86
2019-06-10T01:00:25.795Z,17.85
2019-06-10T01:03:01.104Z,17.83
2019-06-10T01:05:34.952Z,17.81
2019-06-10T01:08:08.720Z,17.80
2019-06-10T01:10:44.188Z,17.81
2019-06-10T01:13:17.663Z,17.80
2019-06-10T01:15:51.300Z,17.74
2019-06-10T01:18:34.571Z,17.74
2019-06-10T01:21:01.925Z,17.73
2019-06-10T01:23:35.526Z,17.71
2019-06-10T01:26:12.526Z,17.71
2019-06-10T01:28:44.309Z,17.73
2019-06-10T01:31:23.342Z,17.76
2019-06-10T01:33:53.147Z,17.76
2019-06-10T01:36:26.631Z,17.77
2019-06-10T01:39:01.572Z,17.77
2019-06-10T01:41:35.213Z,17.72
2019-06-10T01:44:11.118Z,17.73
2019-06-10T01:46:44.131Z,17.76
2019-06-10T01:49:18.152Z,17.77
2019-06-10T01:51:51.847Z,17.77
2019-06-10T01:54:25.367Z,17.81
2019-06-10T01:57:01.345Z,17.84
2019-06-10T01:59:34.063Z,17.85
2019-06-10T02:02:12.094Z,17.87
2019-06-10T02:04:44.402Z,17.89
2019-06-10T02:07:18.761Z,17.90
2019-06-10T02:09:53.169Z,17.92
2019-06-10T02:12:26.641Z,17.94
2019-06-10T02:15:01.272Z,17.96
2019-06-10T02:17:34.965Z,17.95
2019-06-10T02:20:10.654Z,17.94
2019-06-10T02:22:44.074Z,17.91
2019-06-10T02:25:18.727Z,17.91
2019-06-10T02:27:52.778Z,17.93
2019-06-10T02:30:40.110Z,17.91
2019-06-10T02:33:02.571Z,17.87
2019-06-10T02:35:44.099Z,17.84
2019-06-10T02:38:16.953Z,17.79
2019-06-10T02:40:46.640Z,17.71
2019-06-10T02:43:29.396Z,17.65
2019-06-10T02:45:57.221Z,17.58
2019-06-10T02:48:31.570Z,17.51
2019-06-10T02:51:07.661Z,17.50
2019-06-10T02:53:43.424Z,17.48
2019-06-10T02:56:17.686Z,17.47
2019-06-10T02:58:53.472Z,17.48
2019-06-10T03:01:32.532Z,17.48
2019-06-10T03:04:04.647Z,17.45
2019-06-10T03:06:40.287Z,17.45
2019-06-10T03:09:14.050Z,17.46
2019-06-10T03:11:48.001Z,17.44
2019-06-10T03:14:22.629Z,17.40
2019-06-10T03:16:58.442Z,17.41
2019-06-10T03:19:46.262Z,17.41
2019-06-10T03:22:07.243Z,17.45
2019-06-10T03:24:42.159Z,17.45
2019-06-10T03:27:16.358Z,17.46
2019-06-10T03:29:49.894Z,17.45
2019-06-10T03:32:31.964Z,17.42
2019-06-10T03:34:58.591Z,17.40
2019-06-10T03:37:32.885Z,17.37
2019-06-10T03:40:07.919Z,17.34
2019-06-10T03:42:42.798Z,17.32
2019-06-10T03:45:17.516Z,17.34
2019-06-10T03:47:52.746Z,17.36
2019-06-10T03:50:27.491Z,17.36
2019-06-10T03:53:04.269Z,17.33
2019-06-10T03:55:36.800Z,17.36
2019-06-10T03:58:12.465Z,17.37
2019-06-10T04:00:45.698Z,17.38
2019-06-10T04:03:19.395Z,17.34
2019-06-10T04:05:52.848Z,17.35
2019-06-10T04:08:26.875Z,17.39
2019-06-10T04:11:03.008Z,17.42
2019-06-10T04:13:36.874Z,17.45
2019-06-10T04:16:12.799Z,17.42
2019-06-10T04:18:45.799Z,17.41
2019-06-10T04:21:20.333Z,17.42
2019-06-10T04:23:54.530Z,17.37
2019-06-10T04:26:28.555Z,17.36
2019-06-10T04:29:03.431Z,17.35
2019-06-10T04:31:36.899Z,17.36
2019-06-10T04:34:12.475Z,17.36
2019-06-10T04:36:45.662Z,17.39
2019-06-10T04:39:20.428Z,17.43
2019-06-10T04:41:54.636Z,17.45
2019-06-10T04:44:29.397Z,17.44
2019-06-10T04:47:02.964Z,17.45
2019-06-10T04:49:36.462Z,17.48
2019-06-10T04:52:12.147Z,17.50
2019-06-10T04:54:45.268Z,17.44
2019-06-10T04:57:18.867Z,17.40
2019-06-10T04:59:52.976Z,17.38
2019-06-10T05:02:27.228Z,17.37
2019-06-10T05:05:02.867Z,17.43
2019-06-10T05:07:37.265Z,17.45
2019-06-10T05:10:12.429Z,17.47
2019-06-10T05:12:46.032Z,17.55
2019-06-10T05:15:19.698Z,17.60
2019-06-10T05:17:53.219Z,17.59
2019-06-10T05:20:44.181Z,17.54
2019-06-10T05:23:02.316Z,17.55
2019-06-10T05:25:35.922Z,17.60
2019-06-10T05:28:09.459Z,17.61
2019-06-10T05:30:43.015Z,17.58
2019-06-10T05:33:16.486Z,17.50
2019-06-10T05:35:50.067Z,17.40
2019-06-10T05:38:26.866Z,17.37
2019-06-10T05:40:58.950Z,17.38
2019-06-10T05:43:34.475Z,17.35
2019-06-10T05:46:07.696Z,17.30
2019-06-10T05:48:43.524Z,17.30
2019-06-10T05:51:16.555Z,17.31
2019-06-10T05:53:52.575Z,17.34
2019-06-10T05:56:25.450Z,17.25
2019-06-10T05:59:01.645Z,17.20
2019-06-10T06:01:38.203Z,17.20
2019-06-10T06:04:09.475Z,17.17
2019-06-10T06:06:45.094Z,17.12
2019-06-10T06:09:18.379Z,17.06
2019-06-10T06:11:52.371Z,16.98
2019-06-10T06:14:27.461Z,16.98
2019-06-10T06:17:02.259Z,16.97
2019-06-10T06:19:38.471Z,16.96
2019-06-10T06:22:12.980Z,16.97
2019-06-10T06:24:46.630Z,17.01
2019-06-10T06:27:22.340Z,17.04
2019-06-10T06:29:55.528Z,17.10
2019-06-10T06:32:29.025Z,17.20
2019-06-10T06:35:02.681Z,17.21
2019-06-10T06:37:39.420Z,17.22
2019-06-10T06:40:13.254Z,17.29
2019-06-10T06:42:47.013Z,17.30
2019-06-10T06:45:22.202Z,17.36
2019-06-10T06:47:55.813Z,17.46
2019-06-10T06:50:30.821Z,17.52
2019-06-10T06:53:31.937Z,17.53
2019-06-10T06:55:39.885Z,17.54
2019-06-10T06:58:13.454Z,17.56
2019-06-10T07:01:00.457Z,17.65
2019-06-10T07:03:22.977Z,17.70
2019-06-10T07:05:56.889Z,17.80
2019-06-10T07:08:33.251Z,18.01
2019-06-10T07:11:08.125Z,18.18
2019-06-10T07:13:45.858Z,18.42
2019-06-10T07:16:19.175Z,18.66
2019-06-10T07:18:53.909Z,18.91
2019-06-10T07:21:27.787Z,18.97
2019-06-10T07:24:03.209Z,19.00
2019-06-10T07:26:42.336Z,19.02
2019-06-10T07:29:13.271Z,19.01
2019-06-10T07:31:50.313Z,18.94
2019-06-10T07:34:22.376Z,19.00
2019-06-10T07:36:56.002Z,19.05
2019-06-10T07:39:29.502Z,19.00
2019-06-10T07:42:03.169Z,18.93
2019-06-10T07:44:37.584Z,18.92
2019-06-10T07:47:12.792Z,18.88
2019-06-10T07:49:46.487Z,18.86
2019-06-10T07:52:20.350Z,18.92
2019-06-10T07:54:55.251Z,19.02
2019-06-10T07:57:28.717Z,19.12
2019-06-10T08:00:03.169Z,19.31
2019-06-10T08:02:37.623Z,19.57
2019-06-10T08:05:12.838Z,19.84
2019-06-10T08:07:48.809Z,20.13
2019-06-10T08:10:23.273Z,20.45
2019-06-10T08:12:56.807Z,20.84
2019-06-10T08:15:32.558Z,21.33
2019-06-10T08:18:05.639Z,21.71
2019-06-10T08:20:52.814Z,22.03
2019-06-10T08:23:26.337Z,22.22
2019-06-10T08:25:59.969Z,22.50
2019-06-10T08:28:33.511Z,22.53
2019-06-10T08:31:07.171Z,22.82
2019-06-10T08:33:44.424Z,23.07
2019-06-10T08:36:15.848Z,23.11
2019-06-10T08:38:49.326Z,22.78
2019-06-10T08:41:23.269Z,22.45
2019-06-10T08:43:56.858Z,22.19
2019-06-10T08:46:32.751Z,22.02
2019-06-10T08:49:05.922Z,21.91
2019-06-10T08:51:39.738Z,22.15
2019-06-10T08:54:13.348Z,22.67
2019-06-10T08:56:50.337Z,23.31
2019-06-10T08:59:23.147Z,23.82
2019-06-10T09:01:57.245Z,24.22
2019-06-10T09:04:32.940Z,24.51
2019-06-10T09:07:06.294Z,24.59
2019-06-10T09:09:40.514Z,24.41
2019-06-10T09:12:28.906Z,24.13
2019-06-10T09:14:50.714Z,23.76
2019-06-10T09:17:25.334Z,23.40
2019-06-10T09:19:58.876Z,23.06
2019-06-10T09:22:32.766Z,22.82
2019-06-10T09:25:07.568Z,22.61
2019-06-10T09:27:44.275Z,22.44
2019-06-10T09:30:17.514Z,22.31
2019-06-10T09:32:53.855Z,22.20
2019-06-10T09:35:26.352Z,22.16
2019-06-10T09:37:59.946Z,22.05
2019-06-10T09:40:52.204Z,22.05
2019-06-10T09:43:24.065Z,22.08
2019-06-10T09:45:57.786Z,22.04
2019-06-10T09:48:33.584Z,22.04
2019-06-10T09:51:06.666Z,22.08
2019-06-10T09:53:46.470Z,22.11
2019-06-10T09:56:15.642Z,22.21
2019-06-10T09:58:50.840Z,22.25
2019-06-10T10:01:24.822Z,22.31
2019-06-10T10:04:00.351Z,22.38
2019-06-10T10:06:34.153Z,22.33
2019-06-10T10:09:07.892Z,22.41
2019-06-10T10:11:44.090Z,22.83
2019-06-10T10:14:16.782Z,23.17
2019-06-10T10:16:55.132Z,23.41
2019-06-10T10:19:50.301Z,23.76
2019-06-10T10:22:24.285Z,24.17
2019-06-10T10:24:57.856Z,24.78
2019-06-10T10:27:32.331Z,25.04
2019-06-10T10:30:08.714Z,25.18
2019-06-10T10:32:44.308Z,25.18
2019-06-10T10:35:17.582Z,25.13
2019-06-10T10:37:53.833Z,24.91
2019-06-10T10:40:26.545Z,24.73
2019-06-10T10:43:19.949Z,24.56
2019-06-10T10:45:35.363Z,24.49
2019-06-10T10:48:08.897Z,24.35
2019-06-10T10:50:43.862Z,24.30
2019-06-10T10:53:17.833Z,24.28
2019-06-10T10:55:51.968Z,24.28
2019-06-10T10:58:26.039Z,24.21
2019-06-10T11:00:59.546Z,24.16
2019-06-10T11:03:33.748Z,24.23
2019-06-10T11:06:07.487Z,24.19
2019-06-10T11:08:44.189Z,24.15
2019-06-10T11:11:16.577Z,24.22
2019-06-10T11:13:54.831Z,24.24
2019-06-10T11:16:27.567Z,24.20
2019-06-10T11:19:02.573Z,24.20
2019-06-10T11:21:36.472Z,24.16
2019-06-10T11:24:10.001Z,24.17
2019-06-10T11:26:43.575Z,24.24
2019-06-10T11:29:17.043Z,24.24
2019-06-10T11:31:53.661Z,24.23
2019-06-10T11:34:25.765Z,24.33
2019-06-10T11:36:59.335Z,24.43
2019-06-10T11:39:34.273Z,24.56
2019-06-10T11:42:08.261Z,24.72
2019-06-10T11:44:42.521Z,24.77
2019-06-10T11:47:16.141Z,24.86
2019-06-10T11:49:52.300Z,24.88
2019-06-10T11:52:25.196Z,24.96
2019-06-10T11:55:11.756Z,24.99
2019-06-10T11:57:34.124Z,25.03
2019-06-10T12:00:14.841Z,25.08
2019-06-10T12:02:46.173Z,25.00
2019-06-10T12:05:23.259Z,24.88
2019-06-10T12:07:58.283Z,24.87
2019-06-10T12:10:33.061Z,24.97
2019-06-10T12:13:07.237Z,25.14
2019-06-10T12:16:20.707Z,25.25
2019-06-10T12:18:16.309Z,25.34
2019-06-10T12:20:49.907Z,25.49
2019-06-10T12:23:23.471Z,25.63
2019-06-10T12:25:59.294Z,25.83
2019-06-10T12:28:32.777Z,26.15
2019-06-10T12:31:07.390Z,26.59
2019-06-10T12:33:42.113Z,26.75
2019-06-10T12:36:15.833Z,26.78
2019-06-10T12:38:49.385Z,26.88
2019-06-10T12:41:23.390Z,27.30
2019-06-10T12:43:58.357Z,27.64
2019-06-10T12:46:32.792Z,27.78
2019-06-10T12:49:08.657Z,27.90
2019-06-10T12:51:41.745Z,27.74
2019-06-10T12:54:15.351Z,27.58
2019-06-10T12:56:48.830Z,27.54
2019-06-10T12:59:22.479Z,27.56
2019-06-10T13:01:57.893Z,27.36
2019-06-10T13:04:31.851Z,27.19
2019-06-10T13:07:07.293Z,26.98
2019-06-10T13:09:43.261Z,26.92
2019-06-10T13:12:16.317Z,26.94
2019-06-10T13:14:52.088Z,26.90
2019-06-10T13:17:25.137Z,26.84
2019-06-10T13:19:59.225Z,26.80
2019-06-10T13:22:32.775Z,26.86
2019-06-10T13:25:07.050Z,27.03
2019-06-10T13:27:42.703Z,27.19
2019-06-10T13:30:16.879Z,27.29
2019-06-10T13:32:52.697Z,27.25
2019-06-10T13:35:25.721Z,27.16
2019-06-10T13:37:59.218Z,27.22
2019-06-10T13:40:32.697Z,27.39
2019-06-10T13:43:06.194Z,27.65
2019-06-10T13:45:39.669Z,27.91
2019-06-10T13:48:14.945Z,28.13
2019-06-10T13:50:48.566Z,28.38
2019-06-10T13:53:22.340Z,28.58
2019-06-10T13:56:17.186Z,28.53
2019-06-10T13:58:31.254Z,28.41
2019-06-10T14:01:09.461Z,28.29
2019-06-10T14:03:43.015Z,28.21
2019-06-10T14:06:33.182Z,28.07
2019-06-10T14:08:54.566Z,28.13
2019-06-10T14:11:29.597Z,28.16
2019-06-10T14:14:02.011Z,28.17
2019-06-10T14:16:36.253Z,28.18
2019-06-10T14:19:12.619Z,28.22
2019-06-10T14:21:44.957Z,28.12
2019-06-10T14:24:18.438Z,28.05
2019-06-10T14:26:53.169Z,28.18
2019-06-10T14:29:26.788Z,28.54
2019-06-10T14:32:02.654Z,28.54
2019-06-10T14:34:35.626Z,28.62
2019-06-10T14:37:10.418Z,28.71
2019-06-10T14:39:44.462Z,28.87
2019-06-10T14:42:17.936Z,29.17
2019-06-10T14:44:52.661Z,29.26
2019-06-10T14:47:26.368Z,29.00
2019-06-10T14:50:00.008Z,28.60
2019-06-10T14:52:33.508Z,28.31
2019-06-10T14:55:07.489Z,28.33
2019-06-10T14:57:42.606Z,28.88
2019-06-10T15:00:18.253Z,29.45
2019-06-10T15:02:53.794Z,30.14
2019-06-10T15:05:27.230Z,30.61
2019-06-10T15:08:03.156Z,30.86
2019-06-10T15:10:35.963Z,30.89
2019-06-10T15:13:10.006Z,30.86
2019-06-10T15:15:43.501Z,30.89
2019-06-10T15:18:18.254Z,30.72
2019-06-10T15:20:53.476Z,30.63
2019-06-10T15:23:27.251Z,30.51
2019-06-10T15:26:02.780Z,30.33
2019-06-10T15:28:36.207Z,29.93
2019-06-10T15:31:10.939Z,29.71
2019-06-10T15:33:45.053Z,29.74
2019-06-10T15:36:19.465Z,29.79
2019-06-10T15:38:53.004Z,29.91
2019-06-10T15:41:26.518Z,30.04
2019-06-10T15:44:02.412Z,30.27
2019-06-10T15:46:35.285Z,30.45
2019-06-10T15:49:08.814Z,30.52
2019-06-10T15:51:43.517Z,30.57
2019-06-10T15:54:19.075Z,30.68
2019-06-10T15:56:56.210Z,30.86
2019-06-10T15:59:27.666Z,30.89
2019-06-10T16:02:02.580Z,30.90
2019-06-10T16:04:36.296Z,30.93
2019-06-10T16:07:09.921Z,30.52
2019-06-10T16:09:43.475Z,30.13
2019-06-10T16:12:18.289Z,29.81
2019-06-10T16:14:52.986Z,29.79
2019-06-10T16:17:29.941Z,30.19
2019-06-10T16:20:03.801Z,30.45
2019-06-10T16:22:37.059Z,30.24
2019-06-10T16:25:12.755Z,30.05
2019-06-10T16:27:50.862Z,30.00
2019-06-10T16:30:23.179Z,29.82
2019-06-10T16:32:56.596Z,29.64
2019-06-10T16:35:32.245Z,29.47
2019-06-10T16:38:05.428Z,29.32
2019-06-10T16:40:38.929Z,29.24
2019-06-10T16:43:12.505Z,29.08
2019-06-10T16:45:46.056Z,28.87
2019-06-10T16:48:21.357Z,28.57
2019-06-10T16:50:54.907Z,28.26
2019-06-10T16:53:30.891Z,27.96
2019-06-10T16:56:03.867Z,27.71
2019-06-10T16:58:37.377Z,27.52
2019-06-10T17:01:12.388Z,27.34
2019-06-10T17:03:46.263Z,27.10
2019-06-10T17:06:22.037Z,26.90
2019-06-10T17:08:55.029Z,26.69
2019-06-10T17:11:29.436Z,26.48
2019-06-10T17:14:04.902Z,26.37
2019-06-10T17:16:40.675Z,26.27
2019-06-10T17:19:14.385Z,26.27
2019-06-10T17:21:48.054Z,26.22
2019-06-10T17:24:25.514Z,26.17
2019-06-10T17:26:57.229Z,26.14
2019-06-10T17:29:33.231Z,26.16
2019-06-10T17:32:06.175Z,26.16
2019-06-10T17:34:42.221Z,26.13
2019-06-10T17:37:14.980Z,26.09
2019-06-10T17:39:48.523Z,26.01
2019-06-10T17:42:27.807Z,25.97
2019-06-10T17:44:57.434Z,25.94
2019-06-10T17:47:32.387Z,25.84
2019-06-10T17:50:08.683Z,25.73
2019-06-10T17:52:42.722Z,25.64
2019-06-10T17:55:16.572Z,25.52
2019-06-10T17:57:50.125Z,25.39
2019-06-10T18:00:26.105Z,25.25
2019-06-10T18:02:59.068Z,25.17
2019-06-10T18:05:33.516Z,25.09
2019-06-10T18:08:07.031Z,24.94
2019-06-10T18:10:43.290Z,24.84
2019-06-10T18:13:16.807Z,24.75
2019-06-10T18:15:53.170Z,24.55
2019-06-10T18:18:26.360Z,24.40
2019-06-10T18:21:00.045Z,24.33
2019-06-10T18:23:35.059Z,24.22
2019-06-10T18:26:08.832Z,24.10
2019-06-10T18:29:00.278Z,23.95
2019-06-10T18:31:18.680Z,23.84
2019-06-10T18:33:53.052Z,23.72
2019-06-10T18:36:27.920Z,23.62
2019-06-10T18:39:02.951Z,23.55
2019-06-10T18:41:37.495Z,23.46
2019-06-10T18:44:22.021Z,23.40
2019-06-10T18:46:46.403Z,23.33
2019-06-10T18:49:22.524Z,23.27
2019-06-10T18:51:55.351Z,23.22
2019-06-10T18:54:29.573Z,23.17
2019-06-10T18:57:03.338Z,23.12
2019-06-10T18:59:38.313Z,23.04
2019-06-10T19:02:12.357Z,22.93
2019-06-10T19:04:45.987Z,22.85
2019-06-10T19:07:19.614Z,22.75
2019-06-10T19:09:53.215Z,22.69
2019-06-10T19:12:26.866Z,22.62
2019-06-10T19:15:02.643Z,22.58
2019-06-10T19:17:39.524Z,22.53
2019-06-10T19:20:12.926Z,22.47
2019-06-10T19:22:46.590Z,22.38
2019-06-10T19:25:20.403Z,22.31
2019-06-10T19:27:53.938Z,22.24
2019-06-10T19:30:27.744Z,22.20
2019-06-10T19:33:02.511Z,22.13
2019-06-10T19:35:38.161Z,22.10
2019-06-10T19:38:12.576Z,22.06
2019-06-10T19:40:46.138Z,21.98
2019-06-10T19:43:19.656Z,21.94
2019-06-10T19:45:53.209Z,21.87
2019-06-10T19:48:26.696Z,21.84
2019-06-10T19:51:02.918Z,21.80
2019-06-10T19:53:37.045Z,21.76
2019-06-10T19:56:12.944Z,21.73
2019-06-10T19:58:46.594Z,21.68
2019-06-10T20:01:22.419Z,21.66
2019-06-10T20:03:55.530Z,21.65
2019-06-10T20:06:29.127Z,21.61
2019-06-10T20:09:02.866Z,21.52
2019-06-10T20:11:36.394Z,21.42
2019-06-10T20:14:12.693Z,21.29
2019-06-10T20:16:46.128Z,21.20
2019-06-10T20:19:22.271Z,21.09
2019-06-10T20:21:55.042Z,21.04
2019-06-10T20:24:28.548Z,20.97
2019-06-10T20:27:03.167Z,20.93
2019-06-10T20:29:37.836Z,20.90
2019-06-10T20:32:11.386Z,20.91
2019-06-10T20:34:45.075Z,20.93
2019-06-10T20:37:18.790Z,20.96
2019-06-10T20:39:53.910Z,20.97
2019-06-10T20:42:27.668Z,21.00
2019-06-10T20:45:02.750Z,21.02
2019-06-10T20:47:37.607Z,21.07
2019-06-10T20:50:13.059Z,21.08
2019-06-10T20:52:47.854Z,21.08
2019-06-10T20:55:24.846Z,21.08
2019-06-10T20:58:03.535Z,21.08
2019-06-10T21:00:34.661Z,21.08
2019-06-10T21:03:08.436Z,21.08
2019-06-10T21:05:45.671Z,21.07
2019-06-10T21:08:19.317Z,21.07
2019-06-10T21:10:54.663Z,21.06
2019-06-10T21:13:28.383Z,21.06
2019-06-10T21:16:03.515Z,20.96
2019-06-10T21:18:37.188Z,20.81
2019-06-10T21:21:10.684Z,20.71
2019-06-10T21:23:45.016Z,20.63
2019-06-10T21:26:19.624Z,20.49
2019-06-10T21:28:54.989Z,20.26
2019-06-10T21:31:29.636Z,20.05
2019-06-10T21:34:03.858Z,19.89
2019-06-10T21:36:38.955Z,19.81
2019-06-10T21:39:12.553Z,19.76
2019-06-10T21:41:47.060Z,19.74
2019-06-10T21:44:23.126Z,19.75
2019-06-10T21:46:56.720Z,19.77
2019-06-10T21:49:32.195Z,19.75
2019-06-10T21:52:05.779Z,19.70
2019-06-10T21:54:39.325Z,19.69
2019-06-10T21:57:12.881Z,19.69
2019-06-10T21:59:47.025Z,19.65
2019-06-10T22:02:22.982Z,19.64
2019-06-10T22:04:55.944Z,19.60
2019-06-10T22:07:29.554Z,19.60
2019-06-10T22:10:03.907Z,19.61
2019-06-10T22:12:37.398Z,19.60
2019-06-10T22:15:14.006Z,19.55
2019-06-10T22:17:48.292Z,19.51
2019-06-10T22:20:22.800Z,19.49
2019-06-10T22:22:56.448Z,19.44
2019-06-10T22:25:30.021Z,19.43
2019-06-10T22:28:03.530Z,19.48
2019-06-10T22:30:37.181Z,19.48
2019-06-10T22:33:12.392Z,19.46
2019-06-10T22:35:47.460Z,19.44
2019-06-10T22:38:22.174Z,19.44
2019-06-10T22:40:57.047Z,19.47
2019-06-10T22:43:32.153Z,19.49
2019-06-10T22:46:05.961Z,19.47
2019-06-10T22:48:39.505Z,19.41
2019-06-10T22:51:13.072Z,19.34
2019-06-10T22:53:48.322Z,19.25
2019-06-10T22:56:21.981Z,19.22
2019-06-10T22:58:57.190Z,19.19
2019-06-10T23:01:37.677Z,19.21
2019-06-10T23:04:06.357Z,19.19
2019-06-10T23:06:39.896Z,19.19
2019-06-10T23:09:14.894Z,19.17
2019-06-10T23:11:48.589Z,19.16
2019-06-10T23:14:22.753Z,19.11
2019-06-10T23:16:57.145Z,19.06
2019-06-10T23:19:33.082Z,19.04
2019-06-10T23:22:07.066Z,18.99
2019-06-10T23:24:42.625Z,18.96
2019-06-10T23:27:15.881Z,18.92
2019-06-10T23:29:49.962Z,18.86
2019-06-10T23:32:24.753Z,18.79
2019-06-10T23:35:00.980Z,18.73
2019-06-10T23:37:33.534Z,18.67
2019-06-10T23:40:07.350Z,18.62
2019-06-10T23:42:41.017Z,18.57
2019-06-10T23:45:14.761Z,18.55
2019-06-10T23:47:48.342Z,18.52
2019-06-10T23:50:22.510Z,18.52
2019-06-10T23:53:00.163Z,18.53
2019-06-10T23:55:32.039Z,18.50
2019-06-10T23:58:07.186Z,18.48
